SLAS/ASC METAR and TAF weather

Enter ICAO airport designator
Station Type Date Time Source
SLAS METAR 2019/04/14 11:00 UTC NOAA

SLAS 141100Z 00000KT 9999 NSC 23/22 Q1013 A2991 HR95 RWY NML


Station Type Date Time Source
SLAS Decoded METAR 2019/04/14 11:00 UTC NOAA

Ascencion De Guarayos, Bolivia (SLAS) 15-43S 063-06W
Apr 14, 2019 - 07:00 AM EDT / 2019.04.14 1100 UTC
Wind: Calm:0
Visibility: greater than 7 mile(s):0
Temperature: 73 F (23 C)
Dew Point: 71 F (22 C)
Relative Humidity: 94%
Pressure (altimeter): 29.91 in. Hg (1012 hPa)
ob: SLAS 141100Z 00000KT 9999 NSC 23/22 Q1013 A2991 HR95 RWY NML
cycle: 11

Station Type Date Time Source
SLAS TAF UTC NOAA

Error!

Example: see airport list